Wetterdaten: Woche 16.11.15 - 22.11.15 (KW47)
Datum Zeit Temp. Aussen Temp. o. S. +5cm Feuchte Auss BlattFeu 1 Luftdruck Regen Sonnenschein Regendauer Solar Windben Empfang
16.11.2015 00:00 12,3 C 12,2 C 11,1 C 87 % 0 lf 1014,2 hPa 0,0 l/m 0,00 h 0,00 h 0 W/m 24,8 km/h (4 Bft) 93,33 %
16.11.2015 01:00 12,4 C 12,6 C 11,1 C 86 % 0 lf 1014,0 hPa 0,0 l/m 0,00 h 0,00 h 0 W/m 27,3 km/h (4 Bft) 97,58 %
16.11.2015 02:00 12,6 C 12,8 C 11,2 C 87 % 0 lf 1013,9 hPa 0,0 l/m 0,00 h 0,00 h 0 W/m 19,5 km/h (3 Bft) 97,01 %
16.11.2015 03:00 12,8 C 12,8 C 11,7 C 86 % 0 lf 1013,5 hPa 0,0 l/m 0,00 h 0,00 h 0 W/m 21,6 km/h (4 Bft) 95,02 %
16.11.2015 04:00 12,8 C 12,8 C 11,3 C 83 % 0 lf 1013,2 hPa 0,0 l/m 0,00 h 0,00 h 0 W/m 25,9 km/h (4 Bft) 95,31 %
16.11.2015 05:00 12,6 C 12,8 C 11,1 C 82 % 0 lf 1013,1 hPa 0,0 l/m 0,00 h 0,00 h 0 W/m 29,9 km/h (5 Bft) 97,94 %
16.11.2015 06:00 12,4 C 12,5 C 11,0 C 81 % 0 lf 1013,2 hPa 0,0 l/m 0,00 h 0,00 h 0 W/m 25,0 km/h (4 Bft) 95,02 %
16.11.2015 07:00 12,1 C 12,2 C 10,6 C 82 % 0 lf 1013,1 hPa 0,0 l/m 0,00 h 0,00 h 4 W/m 26,6 km/h (4 Bft) 95,94 %
16.11.2015 08:00 11,9 C 12,1 C 10,6 C 81 % 0 lf 1013,3 hPa 0,0 l/m 0,00 h 0,00 h 17 W/m 25,6 km/h (4 Bft) 95,58 %
16.11.2015 09:00 12,0 C 12,7 C 11,0 C 81 % 0 lf 1013,4 hPa 0,0 l/m 0,07 h 0,00 h 65 W/m 27,8 km/h (4 Bft) 96,37 %
16.11.2015 10:00 12,3 C 12,8 C 11,3 C 80 % 0 lf 1013,6 hPa 0,0 l/m 0,00 h 0,00 h 65 W/m 33,2 km/h (5 Bft) 97,22 %
16.11.2015 11:00 12,7 C 13,6 C 11,9 C 82 % 0 lf 1013,4 hPa 0,0 l/m 0,07 h 0,00 h 125 W/m 30,0 km/h (5 Bft) 93,56 %
16.11.2015 12:00 13,1 C 13,9 C 12,3 C 82 % 0 lf 1013,1 hPa 0,0 l/m 0,03 h 0,00 h 121 W/m 31,7 km/h (5 Bft) 95,30 %
16.11.2015 13:00 12,9 C 13,2 C 11,7 C 85 % 1 lf 1012,9 hPa 0,0 l/m 0,00 h 0,00 h 93 W/m 28,2 km/h (4 Bft) 98,57 %
16.11.2015 14:00 12,1 C 12,2 C 11,0 C 90 % 0 lf 1012,7 hPa 0,0 l/m 0,00 h 0,03 h 49 W/m 27,3 km/h (4 Bft) 95,25 %
16.11.2015 15:00 11,8 C 11,7 C 10,2 C 92 % 10 lf 1012,6 hPa 0,0 l/m 0,00 h 0,60 h 31 W/m 27,3 km/h (4 Bft) 95,73 %
16.11.2015 16:00 11,7 C 11,7 C 10,0 C 94 % 4 lf 1012,1 hPa 0,0 l/m 0,00 h 0,73 h 11 W/m 26,7 km/h (4 Bft) 97,31 %
16.11.2015 17:00 11,7 C 11,2 C 10,0 C 95 % 15 lf 1011,9 hPa 0,2 l/m 0,00 h 0,70 h 0 W/m 25,7 km/h (4 Bft) 96,59 %
16.11.2015 18:00 11,9 C 12,0 C 10,4 C 95 % 7 lf 1011,9 hPa 0,0 l/m 0,00 h 0,10 h 0 W/m 26,7 km/h (4 Bft) 94,45 %
16.11.2015 19:00 12,4 C 12,6 C 10,8 C 94 % 4 lf 1012,0 hPa 0,0 l/m 0,00 h 0,10 h 0 W/m 27,5 km/h (4 Bft) 96,42 %
16.11.2015 20:00 12,6 C 12,6 C 11,1 C 94 % 4 lf 1011,8 hPa 0,0 l/m 0,00 h 0,17 h 0 W/m 26,6 km/h (4 Bft) 96,30 %
16.11.2015 21:00 12,8 C 13,1 C 11,5 C 94 % 1 lf 1011,9 hPa 0,0 l/m 0,00 h 0,17 h 0 W/m 26,1 km/h (4 Bft) 96,24 %
16.11.2015 22:00 12,9 C 12,9 C 11,4 C 93 % 4 lf 1011,6 hPa 0,0 l/m 0,00 h 0,30 h 0 W/m 19,7 km/h (3 Bft) 96,45 %
16.11.2015 23:00 12,7 C 12,5 C 10,9 C 93 % 6 lf 1011,2 hPa 0,2 l/m 0,00 h 0,50 h 0 W/m 18,0 km/h (3 Bft) 94,20 %
17.11.2015 00:00 12,5 C 11,7 C 10,6 C 95 % 15 lf 1010,8 hPa 1,0 l/m 0,00 h 0,98 h 0 W/m 19,4 km/h (3 Bft) 97,40 %
17.11.2015 01:00 12,2 C 11,7 C 10,6 C 96 % 15 lf 1010,0 hPa 0,6 l/m 0,00 h 0,73 h 0 W/m 19,2 km/h (3 Bft) 97,08 %
17.11.2015 02:00 12,1 C 11,7 C 10,6 C 97 % 15 lf 1009,4 hPa 0,2 l/m 0,00 h 0,77 h 0 W/m 15,5 km/h (3 Bft) 95,15 %
17.11.2015 03:00 12,2 C 11,9 C 10,6 C 97 % 15 lf 1008,6 hPa 2,0 l/m 0,00 h 1,00 h 0 W/m 18,8 km/h (3 Bft) 94,47 %
17.11.2015 04:00 12,3 C 12,2 C 10,6 C 97 % 15 lf 1007,5 hPa 0,0 l/m 0,00 h 0,00 h 0 W/m 24,1 km/h (4 Bft) 97,52 %
17.11.2015 05:00 12,5 C 12,2 C 11,1 C 97 % 15 lf 1006,9 hPa 1,0 l/m 0,00 h 0,80 h 0 W/m 25,0 km/h (4 Bft) 95,02 %
17.11.2015 06:00 12,5 C 12,2 C 10,8 C 96 % 15 lf 1006,1 hPa 3,2 l/m 0,00 h 0,67 h 0 W/m 20,4 km/h (4 Bft) 96,15 %
17.11.2015 07:00 12,8 C 12,5 C 11,4 C 97 % 15 lf 1005,5 hPa 0,4 l/m 0,00 h 0,67 h 0 W/m 30,3 km/h (5 Bft) 95,77 %
17.11.2015 08:00 13,3 C 13,0 C 11,7 C 98 % 15 lf 1005,8 hPa 0,0 l/m 0,03 h 0,03 h 23 W/m 32,4 km/h (5 Bft) 96,16 %
17.11.2015 09:00 13,9 C 14,2 C 12,3 C 96 % 7 lf 1006,6 hPa 0,0 l/m 0,27 h 0,00 h 73 W/m 36,5 km/h (5 Bft) 96,68 %
17.11.2015 10:00 14,7 C 17,6 C 13,1 C 89 % 0 lf 1007,1 hPa 0,0 l/m 0,70 h 0,00 h 191 W/m 37,0 km/h (5 Bft) 94,60 %
17.11.2015 11:00 15,1 C 16,9 C 13,8 C 84 % 0 lf 1007,8 hPa 0,0 l/m 0,37 h 0,00 h 153 W/m 31,8 km/h (5 Bft) 95,15 %
17.11.2015 12:00 15,6 C 18,5 C 14,3 C 80 % 0 lf 1007,9 hPa 0,0 l/m 0,77 h 0,00 h 241 W/m 34,3 km/h (5 Bft) 98,36 %
17.11.2015 13:00 15,7 C 16,9 C 14,2 C 81 % 0 lf 1007,6 hPa 0,0 l/m 0,27 h 0,00 h 127 W/m 30,3 km/h (5 Bft) 94,88 %
17.11.2015 14:00 15,1 C 14,9 C 13,3 C 85 % 4 lf 1007,6 hPa 0,0 l/m 0,00 h 0,27 h 42 W/m 27,9 km/h (4 Bft) 96,86 %
17.11.2015 15:00 14,0 C 13,9 C 12,1 C 91 % 9 lf 1007,4 hPa 0,2 l/m 0,03 h 0,60 h 45 W/m 31,2 km/h (5 Bft) 96,67 %
17.11.2015 16:00 14,3 C 14,4 C 12,5 C 86 % 0 lf 1007,0 hPa 0,0 l/m 0,00 h 0,37 h 11 W/m 30,8 km/h (5 Bft) 96,62 %
17.11.2015 17:00 14,6 C 14,5 C 12,8 C 84 % 0 lf 1005,9 hPa 0,0 l/m 0,00 h 0,00 h 0 W/m 22,4 km/h (4 Bft) 94,26 %
17.11.2015 18:00 15,0 C 15,3 C 13,2 C 85 % 0 lf 1004,7 hPa 0,0 l/m 0,00 h 0,20 h 0 W/m 28,2 km/h (4 Bft) 97,73 %
17.11.2015 19:00 15,3 C 14,2 C 12,9 C 90 % 14 lf 1004,1 hPa 0,4 l/m 0,00 h 0,87 h 0 W/m 38,3 km/h (5 Bft) 95,66 %
17.11.2015 20:00 15,2 C 14,4 C 12,9 C 94 % 11 lf 1003,7 hPa 0,0 l/m 0,00 h 0,27 h 0 W/m 47,1 km/h (6 Bft) 96,45 %
17.11.2015 21:00 15,5 C 15,5 C 13,4 C 91 % 0 lf 1003,5 hPa 0,0 l/m 0,00 h 0,00 h 0 W/m 49,2 km/h (6 Bft) 95,61 %
17.11.2015 22:00 15,5 C 15,6 C 13,8 C 83 % 0 lf 1003,5 hPa 0,0 l/m 0,00 h 0,00 h 0 W/m 54,3 km/h (7 Bft) 96,88 %
17.11.2015 23:00 15,3 C 15,4 C 13,4 C 78 % 0 lf 1003,8 hPa 0,0 l/m 0,00 h 0,00 h 0 W/m 56,9 km/h (7 Bft) 96,42 %
18.11.2015 00:00 15,1 C 15,0 C 13,3 C 76 % 0 lf 1004,2 hPa 0,0 l/m 0,00 h 0,00 h 0 W/m 54,1 km/h (7 Bft) 96,20 %
18.11.2015 01:00 14,8 C 15,0 C 13,1 C 74 % 0 lf 1004,9 hPa 0,0 l/m 0,00 h 0,17 h 0 W/m 58,2 km/h (7 Bft) 94,48 %
18.11.2015 02:00 14,6 C 14,7 C 12,8 C 74 % 0 lf 1005,8 hPa 0,0 l/m 0,00 h 0,03 h 0 W/m 60,4 km/h (7 Bft) 97,16 %
18.11.2015 03:00 14,3 C 14,4 C 12,8 C 73 % 0 lf 1007,1 hPa 0,0 l/m 0,00 h 0,10 h 0 W/m 52,2 km/h (7 Bft) 97,00 %
18.11.2015 04:00 14,1 C 14,0 C 12,3 C 74 % 0 lf 1008,7 hPa 0,0 l/m 0,00 h 0,00 h 0 W/m 45,4 km/h (6 Bft) 94,77 %
18.11.2015 05:00 13,9 C 13,9 C 12,2 C 72 % 0 lf 1010,3 hPa 0,0 l/m 0,00 h 0,07 h 0 W/m 42,6 km/h (6 Bft) 95,06 %
18.11.2015 06:00 13,5 C 13,5 C 11,8 C 72 % 0 lf 1011,8 hPa 0,0 l/m 0,00 h 0,00 h 0 W/m 42,5 km/h (6 Bft) 96,51 %
18.11.2015 07:00 13,1 C 13,0 C 11,7 C 74 % 0 lf 1013,1 hPa 0,0 l/m 0,00 h 0,00 h 5 W/m 32,8 km/h (5 Bft) 97,64 %
18.11.2015 08:00 12,7 C 12,8 C 11,1 C 75 % 0 lf 1014,5 hPa 0,0 l/m 0,00 h 0,00 h 19 W/m 27,6 km/h (4 Bft) 93,93 %
18.11.2015 09:00 12,6 C 13,0 C 11,4 C 78 % 0 lf 1015,4 hPa 0,0 l/m 0,03 h 0,00 h 68 W/m 21,3 km/h (4 Bft) 95,88 %
18.11.2015 10:00 12,9 C 14,4 C 12,0 C 79 % 0 lf 1015,9 hPa 0,0 l/m 0,20 h 0,00 h 124 W/m 31,5 km/h (5 Bft) 97,64 %
18.11.2015 11:00 13,6 C 14,7 C 12,3 C 78 % 1 lf 1015,7 hPa 0,0 l/m 0,07 h 0,13 h 104 W/m 27,8 km/h (4 Bft) 95,31 %
18.11.2015 12:00 13,8 C 15,1 C 12,9 C 82 % 1 lf 1015,2 hPa 0,0 l/m 0,50 h 0,03 h 172 W/m 33,4 km/h (5 Bft) 94,47 %
18.11.2015 13:00 14,2 C 15,4 C 13,2 C 78 % 0 lf 1014,7 hPa 0,0 l/m 0,13 h 0,00 h 129 W/m 34,3 km/h (5 Bft) 97,86 %
18.11.2015 14:00 14,2 C 15,1 C 12,9 C 75 % 0 lf 1014,2 hPa 0,0 l/m 0,37 h 0,00 h 110 W/m 37,5 km/h (5 Bft) 96,26 %
18.11.2015 15:00 13,9 C 14,1 C 12,2 C 72 % 0 lf 1013,6 hPa 0,0 l/m 0,43 h 0,00 h 69 W/m 38,2 km/h (5 Bft) 93,36 %
18.11.2015 16:00 13,1 C 13,0 C 11,3 C 74 % 0 lf 1013,3 hPa 0,0 l/m 0,40 h 0,00 h 20 W/m 32,0 km/h (5 Bft) 97,99 %
18.11.2015 17:00 12,3 C 12,2 C 10,6 C 77 % 0 lf 1012,8 hPa 0,0 l/m 0,00 h 0,00 h 0 W/m 24,0 km/h (4 Bft) 95,68 %
18.11.2015 18:00 12,1 C 12,2 C 10,6 C 78 % 0 lf 1012,9 hPa 0,0 l/m 0,00 h 0,00 h 0 W/m 30,3 km/h (5 Bft) 95,56 %
18.11.2015 19:00 12,2 C 12,3 C 10,6 C 79 % 0 lf 1012,1 hPa 0,0 l/m 0,00 h 0,00 h 0 W/m 33,6 km/h (5 Bft) 96,36 %
18.11.2015 20:00 12,6 C 12,9 C 11,2 C 80 % 0 lf 1011,1 hPa 0,0 l/m 0,00 h 0,00 h 0 W/m 42,7 km/h (6 Bft) 94,38 %
18.11.2015 21:00 13,6 C 13,6 C 12,0 C 79 % 2 lf 1010,5 hPa 0,0 l/m 0,00 h 0,23 h 0 W/m 44,8 km/h (6 Bft) 96,89 %
18.11.2015 22:00 13,4 C 13,2 C 11,6 C 85 % 5 lf 1010,2 hPa 0,0 l/m 0,00 h 0,70 h 0 W/m 47,0 km/h (6 Bft) 96,37 %
18.11.2015 23:00 13,8 C 13,7 C 12,0 C 82 % 3 lf 1010,3 hPa 0,0 l/m 0,00 h 0,50 h 0 W/m 43,3 km/h (6 Bft) 92,92 %
19.11.2015 00:00 13,2 C 13,0 C 11,5 C 85 % 0 lf 1010,9 hPa 0,0 l/m 0,00 h 0,00 h 0 W/m 38,3 km/h (5 Bft) 97,36 %
19.11.2015 01:00 13,1 C 13,1 C 11,7 C 90 % 0 lf 1010,8 hPa 0,0 l/m 0,00 h 0,00 h 0 W/m 38,1 km/h (5 Bft) 97,93 %
19.11.2015 02:00 13,2 C 13,3 C 11,7 C 86 % 0 lf 1010,7 hPa 0,0 l/m 0,00 h 0,00 h 0 W/m 44,3 km/h (6 Bft) 92,67 %
19.11.2015 03:00 13,4 C 13,3 C 11,8 C 84 % 1 lf 1010,8 hPa 0,0 l/m 0,00 h 0,23 h 0 W/m 42,5 km/h (6 Bft) 97,30 %
19.11.2015 04:00 13,5 C 13,7 C 12,1 C 82 % 0 lf 1010,6 hPa 0,0 l/m 0,00 h 0,00 h 0 W/m 49,8 km/h (6 Bft) 97,01 %
19.11.2015 05:00 13,5 C 13,6 C 12,0 C 80 % 0 lf 1010,9 hPa 0,0 l/m 0,00 h 0,00 h 0 W/m 48,5 km/h (6 Bft) 94,32 %
19.11.2015 06:00 13,3 C 13,3 C 11,7 C 78 % 0 lf 1011,3 hPa 0,0 l/m 0,00 h 0,00 h 0 W/m 41,1 km/h (6 Bft) 95,30 %
19.11.2015 07:00 13,1 C 13,2 C 11,6 C 78 % 1 lf 1011,8 hPa 0,0 l/m 0,00 h 0,10 h 0 W/m 36,1 km/h (5 Bft) 97,51 %
19.11.2015 08:00 12,6 C 12,5 C 10,9 C 80 % 0 lf 1012,5 hPa 0,0 l/m 0,00 h 0,03 h 16 W/m 30,1 km/h (5 Bft) 93,52 %
19.11.2015 09:00 12,2 C 12,8 C 11,1 C 86 % 0 lf 1013,0 hPa 0,0 l/m 0,27 h 0,00 h 82 W/m 29,3 km/h (5 Bft) 98,29 %
19.11.2015 10:00 12,8 C 13,8 C 11,8 C 84 % 0 lf 1013,1 hPa 0,0 l/m 0,20 h 0,00 h 122 W/m 38,8 km/h (5 Bft) 94,31 %
19.11.2015 11:00 13,2 C 13,9 C 12,2 C 81 % 0 lf 1013,3 hPa 0,0 l/m 0,03 h 0,00 h 114 W/m 34,9 km/h (5 Bft) 94,87 %
19.11.2015 12:00 13,1 C 13,3 C 11,3 C 83 % 5 lf 1013,2 hPa 0,0 l/m 0,00 h 0,50 h 52 W/m 30,9 km/h (5 Bft) 97,51 %
19.11.2015 13:00 12,8 C 13,0 C 11,2 C 84 % 5 lf 1012,8 hPa 0,0 l/m 0,00 h 0,70 h 38 W/m 30,9 km/h (5 Bft) 96,44 %
19.11.2015 14:00 11,2 C 9,7 C 8,4 C 86 % 15 lf 1012,8 hPa 1,6 l/m 0,00 h 1,00 h 19 W/m 28,0 km/h (4 Bft) 93,88 %
19.11.2015 15:00 9,6 C 8,8 C 7,8 C 91 % 15 lf 1012,6 hPa 1,0 l/m 0,00 h 1,00 h 11 W/m 19,0 km/h (3 Bft) 98,57 %
19.11.2015 16:00 9,0 C 8,3 C 7,3 C 93 % 15 lf 1011,7 hPa 0,8 l/m 0,00 h 0,87 h 5 W/m 11,0 km/h (2 Bft) 95,59 %
19.11.2015 17:00 8,7 C 8,3 C 7,2 C 94 % 15 lf 1010,8 hPa 0,8 l/m 0,00 h 0,50 h 0 W/m 5,3 km/h (1 Bft) 95,37 %
19.11.2015 18:00 8,6 C 8,3 C 7,2 C 95 % 15 lf 1010,1 hPa 0,8 l/m 0,00 h 0,93 h 0 W/m 2,6 km/h (1 Bft) 95,99 %
19.11.2015 19:00 8,4 C 8,0 C 7,2 C 95 % 15 lf 1009,8 hPa 1,2 l/m 0,00 h 1,00 h 0 W/m 5,3 km/h (1 Bft) 95,66 %
19.11.2015 20:00 8,2 C 7,8 C 6,8 C 95 % 15 lf 1009,9 hPa 1,0 l/m 0,00 h 0,77 h 0 W/m 6,8 km/h (2 Bft) 96,51 %
19.11.2015 21:00 7,8 C 7,7 C 6,7 C 96 % 15 lf 1010,2 hPa 0,0 l/m 0,00 h 0,00 h 0 W/m 9,0 km/h (2 Bft) 96,74 %
19.11.2015 22:00 7,8 C 7,8 C 6,7 C 96 % 15 lf 1010,8 hPa 0,0 l/m 0,00 h 0,00 h 0 W/m 13,5 km/h (3 Bft) 93,31 %
19.11.2015 23:00 7,8 C 7,8 C 6,7 C 97 % 15 lf 1010,6 hPa 0,0 l/m 0,00 h 0,00 h 0 W/m 17,5 km/h (3 Bft) 96,46 %
20.11.2015 00:00 7,9 C 7,9 C 6,9 C 97 % 15 lf 1010,4 hPa 0,0 l/m 0,00 h 0,00 h 0 W/m 15,6 km/h (3 Bft) 94,80 %
20.11.2015 01:00 8,3 C 8,3 C 7,2 C 97 % 15 lf 1010,6 hPa 0,0 l/m 0,00 h 0,00 h 0 W/m 15,0 km/h (3 Bft) 93,50 %
20.11.2015 02:00 8,6 C 8,3 C 7,2 C 98 % 15 lf 1010,5 hPa 0,0 l/m 0,00 h 0,00 h 0 W/m 16,6 km/h (3 Bft) 97,01 %
20.11.2015 03:00 8,8 C 8,9 C 7,7 C 98 % 15 lf 1010,3 hPa 0,0 l/m 0,00 h 0,03 h 0 W/m 20,0 km/h (4 Bft) 96,69 %
20.11.2015 04:00 8,9 C 8,7 C 7,4 C 98 % 14 lf 1009,8 hPa 0,0 l/m 0,00 h 0,00 h 0 W/m 18,0 km/h (3 Bft) 96,28 %
20.11.2015 05:00 8,8 C 8,9 C 7,6 C 97 % 7 lf 1009,5 hPa 0,0 l/m 0,00 h 0,00 h 0 W/m 21,4 km/h (4 Bft) 96,29 %
20.11.2015 06:00 8,9 C 8,5 C 7,5 C 96 % 10 lf 1008,8 hPa 0,4 l/m 0,00 h 0,33 h 0 W/m 18,3 km/h (3 Bft) 95,60 %
20.11.2015 07:00 8,7 C 8,3 C 7,2 C 96 % 15 lf 1008,3 hPa 0,0 l/m 0,00 h 0,00 h 0 W/m 18,6 km/h (3 Bft) 95,96 %
20.11.2015 08:00 8,5 C 8,3 C 6,8 C 96 % 15 lf 1008,1 hPa 0,0 l/m 0,00 h 0,00 h 12 W/m 16,9 km/h (3 Bft) 98,19 %
20.11.2015 09:00 8,4 C 8,3 C 7,1 C 94 % 3 lf 1007,8 hPa 0,0 l/m 0,00 h 0,00 h 36 W/m 15,2 km/h (3 Bft) 96,19 %
20.11.2015 10:00 8,6 C 8,5 C 7,3 C 94 % 0 lf 1006,8 hPa 0,0 l/m 0,00 h 0,00 h 58 W/m 13,8 km/h (3 Bft) 94,29 %
20.11.2015 11:00 8,8 C 9,8 C 8,2 C 92 % 0 lf 1005,9 hPa 0,0 l/m 0,00 h 0,00 h 90 W/m 13,8 km/h (3 Bft) 96,55 %
20.11.2015 12:00 9,0 C 9,8 C 8,2 C 88 % 0 lf 1004,9 hPa 0,0 l/m 0,00 h 0,00 h 79 W/m 13,9 km/h (3 Bft) 96,56 %
20.11.2015 13:00 8,9 C 9,3 C 7,8 C 86 % 0 lf 1004,0 hPa 0,0 l/m 0,00 h 0,00 h 55 W/m 13,1 km/h (3 Bft) 97,09 %
20.11.2015 14:00 8,6 C 8,7 C 7,4 C 86 % 0 lf 1003,1 hPa 0,0 l/m 0,00 h 0,00 h 35 W/m 11,2 km/h (2 Bft) 92,45 %
20.11.2015 15:00 8,3 C 8,1 C 6,9 C 86 % 0 lf 1002,2 hPa 0,0 l/m 0,00 h 0,00 h 20 W/m 10,5 km/h (2 Bft) 97,51 %
20.11.2015 16:00 7,6 C 7,3 C 6,2 C 86 % 0 lf 1001,6 hPa 0,0 l/m 0,00 h 0,00 h 9 W/m 11,0 km/h (2 Bft) 96,93 %
20.11.2015 17:00 6,9 C 5,7 C 4,5 C 87 % 0 lf 1001,2 hPa 0,0 l/m 0,00 h 0,00 h 0 W/m 8,4 km/h (2 Bft) 95,03 %
20.11.2015 18:00 5,8 C 5,0 C 4,0 C 89 % 0 lf 1000,8 hPa 0,0 l/m 0,00 h 0,00 h 0 W/m 9,6 km/h (2 Bft) 96,73 %
20.11.2015 19:00 5,6 C 5,8 C 4,4 C 91 % 11 lf 1000,6 hPa 0,0 l/m 0,00 h 0,27 h 0 W/m 16,6 km/h (3 Bft) 95,50 %
20.11.2015 20:00 6,0 C 6,1 C 4,6 C 90 % 11 lf 1000,2 hPa 0,0 l/m 0,00 h 0,07 h 0 W/m 18,7 km/h (3 Bft) 95,31 %
20.11.2015 21:00 5,6 C 5,2 C 4,1 C 90 % 0 lf 999,6 hPa 0,0 l/m 0,00 h 0,00 h 0 W/m 16,0 km/h (3 Bft) 98,22 %
20.11.2015 22:00 5,6 C 5,7 C 4,4 C 91 % 0 lf 999,3 hPa 0,0 l/m 0,00 h 0,00 h 0 W/m 21,6 km/h (4 Bft) 95,87 %
20.11.2015 23:00 5,4 C 5,6 C 4,2 C 91 % 0 lf 999,0 hPa 0,0 l/m 0,00 h 0,00 h 0 W/m 22,1 km/h (4 Bft) 93,74 %
21.11.2015 00:00 5,1 C 4,8 C 3,7 C 92 % 2 lf 998,3 hPa 0,0 l/m 0,00 h 0,12 h 0 W/m 21,0 km/h (4 Bft) 97,50 %
21.11.2015 01:00 4,9 C 5,2 C 3,9 C 92 % 0 lf 997,7 hPa 0,0 l/m 0,00 h 0,03 h 0 W/m 25,8 km/h (4 Bft) 96,16 %
21.11.2015 02:00 4,9 C 4,6 C 3,4 C 92 % 14 lf 997,2 hPa 2,0 l/m 0,00 h 0,67 h 0 W/m 22,9 km/h (4 Bft) 96,37 %
21.11.2015 03:00 4,6 C 4,2 C 3,1 C 94 % 15 lf 996,4 hPa 0,0 l/m 0,00 h 0,00 h 0 W/m 19,9 km/h (4 Bft) 93,24 %
21.11.2015 04:00 4,1 C 3,9 C 2,8 C 94 % 15 lf 995,9 hPa 0,0 l/m 0,00 h 0,00 h 0 W/m 22,0 km/h (4 Bft) 97,59 %
21.11.2015 05:00 4,1 C 3,9 C 2,7 C 94 % 15 lf 995,8 hPa 0,0 l/m 0,00 h 0,00 h 0 W/m 20,6 km/h (4 Bft) 94,80 %
21.11.2015 06:00 4,0 C 3,9 C 2,4 C 93 % 12 lf 995,5 hPa 0,0 l/m 0,00 h 0,00 h 0 W/m 19,9 km/h (4 Bft) 97,01 %
21.11.2015 07:00 3,4 C 3,2 C 1,8 C 91 % 5 lf 995,3 hPa 0,0 l/m 0,00 h 0,00 h 5 W/m 15,4 km/h (3 Bft) 96,44 %
21.11.2015 08:00 3,1 C 3,0 C 1,7 C 93 % 2 lf 995,4 hPa 0,0 l/m 0,00 h 0,00 h 12 W/m 16,7 km/h (3 Bft) 93,10 %
21.11.2015 09:00 2,9 C 3,5 C 2,0 C 93 % 0 lf 995,6 hPa 0,0 l/m 0,73 h 0,00 h 103 W/m 16,9 km/h (3 Bft) 97,46 %
21.11.2015 10:00 4,1 C 9,7 C 3,6 C 91 % 0 lf 995,3 hPa 0,0 l/m 1,00 h 0,00 h 293 W/m 21,3 km/h (4 Bft) 98,00 %
21.11.2015 11:00 5,6 C 10,1 C 4,7 C 83 % 0 lf 995,3 hPa 0,0 l/m 0,70 h 0,00 h 241 W/m 24,0 km/h (4 Bft) 92,90 %
21.11.2015 12:00 5,6 C 9,3 C 4,6 C 81 % 0 lf 995,0 hPa 0,0 l/m 0,70 h 0,00 h 215 W/m 24,1 km/h (4 Bft) 96,74 %
21.11.2015 13:00 5,6 C 6,8 C 5,1 C 81 % 0 lf 995,0 hPa 0,0 l/m 0,30 h 0,00 h 125 W/m 19,9 km/h (4 Bft) 96,83 %
21.11.2015 14:00 5,6 C 6,6 C 5,1 C 82 % 0 lf 995,4 hPa 0,0 l/m 0,47 h 0,00 h 112 W/m 17,3 km/h (3 Bft) 93,95 %
21.11.2015 15:00 5,5 C 5,8 C 4,4 C 82 % 0 lf 996,0 hPa 0,0 l/m 0,03 h 0,00 h 32 W/m 12,9 km/h (3 Bft) 95,25 %
21.11.2015 16:00 5,0 C 4,8 C 3,8 C 85 % 0 lf 997,1 hPa 0,0 l/m 0,00 h 0,00 h 10 W/m 11,3 km/h (2 Bft) 98,79 %
21.11.2015 17:00 4,4 C 4,1 C 3,1 C 88 % 0 lf 997,8 hPa 0,0 l/m 0,00 h 0,00 h 10 W/m 10,6 km/h (2 Bft) 93,81 %
21.11.2015 18:00 3,9 C 3,9 C 2,8 C 90 % 2 lf 998,2 hPa 0,0 l/m 0,00 h 0,37 h 14 W/m 11,7 km/h (2 Bft) 95,45 %
21.11.2015 19:00 3,7 C 3,3 C 2,4 C 92 % 15 lf 998,8 hPa 0,2 l/m 0,00 h 0,83 h 14 W/m 11,0 km/h (2 Bft) 96,58 %
21.11.2015 20:00 3,6 C 3,5 C 2,5 C 94 % 15 lf 999,2 hPa 0,6 l/m 0,00 h 0,97 h 14 W/m 15,1 km/h (3 Bft) 94,81 %
21.11.2015 21:00 4,0 C 3,9 C 2,8 C 95 % 15 lf 1000,0 hPa 0,0 l/m 0,00 h 0,10 h 14 W/m 20,1 km/h (4 Bft) 97,93 %
21.11.2015 22:00 3,6 C 3,0 C 1,9 C 95 % 15 lf 1000,7 hPa 0,0 l/m 0,00 h 0,00 h 12 W/m 19,4 km/h (3 Bft) 96,65 %
21.11.2015 23:00 2,6 C 1,8 C 1,0 C 95 % 15 lf 1001,5 hPa 0,0 l/m 0,00 h 0,00 h 3 W/m 14,6 km/h (3 Bft) 93,17 %
22.11.2015 00:00 1,9 C 1,1 C 0,2 C 94 % 15 lf 1002,4 hPa 0,0 l/m 0,00 h 0,00 h 0 W/m 10,4 km/h (2 Bft) 97,57 %
22.11.2015 01:00 1,7 C 1,5 C 0,7 C 95 % 15 lf 1002,9 hPa 0,0 l/m 0,00 h 0,00 h 0 W/m 11,6 km/h (2 Bft) 96,94 %
22.11.2015 02:00 1,3 C 0,4 C -0,3 C 95 % 15 lf 1003,2 hPa 0,0 l/m 0,00 h 0,00 h 0 W/m 9,0 km/h (2 Bft) 95,01 %
22.11.2015 03:00 0,8 C -0,2 C -0,6 C 95 % 15 lf 1003,5 hPa 0,0 l/m 0,00 h 0,00 h 0 W/m 8,5 km/h (2 Bft) 95,73 %
22.11.2015 04:00 0,6 C 0,0 C -0,6 C 95 % 15 lf 1003,8 hPa 0,0 l/m 0,00 h 0,00 h 0 W/m 12,2 km/h (2 Bft) 94,85 %
22.11.2015 05:00 0,4 C -0,5 C -1,1 C 96 % 15 lf 1004,3 hPa 0,0 l/m 0,00 h 0,00 h 0 W/m 7,2 km/h (2 Bft) 96,58 %
22.11.2015 06:00 0,0 C -0,6 C -1,1 C 96 % 15 lf 1004,8 hPa 0,0 l/m 0,00 h 0,00 h 0 W/m 11,8 km/h (2 Bft) 95,60 %
22.11.2015 07:00 0,1 C -0,5 C -0,9 C 96 % 15 lf 1005,1 hPa 0,0 l/m 0,00 h 0,00 h 4 W/m 10,6 km/h (2 Bft) 96,21 %
22.11.2015 08:00 0,3 C 0,3 C -0,3 C 96 % 15 lf 1006,0 hPa 0,0 l/m 0,57 h 0,00 h 33 W/m 14,4 km/h (3 Bft) 94,41 %
22.11.2015 09:00 1,0 C 1,1 C 0,3 C 97 % 15 lf 1006,6 hPa 0,0 l/m 0,97 h 0,00 h 121 W/m 15,3 km/h (3 Bft) 95,93 %
22.11.2015 10:00 2,1 C 6,4 C 1,4 C 97 % 15 lf 1007,1 hPa 0,2 l/m 1,00 h 0,00 h 219 W/m 17,6 km/h (3 Bft) 97,86 %
22.11.2015 11:00 3,6 C 9,3 C 2,7 C 96 % 3 lf 1007,8 hPa 0,0 l/m 0,77 h 0,00 h 243 W/m 19,0 km/h (3 Bft) 95,45 %
22.11.2015 12:00 5,0 C 8,5 C 3,9 C 89 % 0 lf 1007,9 hPa 0,0 l/m 0,93 h 0,00 h 223 W/m 18,8 km/h (3 Bft) 95,16 %
22.11.2015 13:00 5,4 C 7,1 C 3,8 C 84 % 0 lf 1008,0 hPa 0,0 l/m 0,50 h 0,00 h 144 W/m 20,1 km/h (4 Bft) 97,83 %
22.11.2015 14:00 5,4 C 6,7 C 3,8 C 82 % 0 lf 1008,3 hPa 0,0 l/m 0,40 h 0,07 h 105 W/m 24,1 km/h (4 Bft) 93,35 %
22.11.2015 15:00 4,5 C 4,5 C 3,2 C 84 % 0 lf 1008,8 hPa 0,0 l/m 0,00 h 0,00 h 40 W/m 21,2 km/h (4 Bft) 96,68 %
22.11.2015 16:00 2,7 C 2,0 C 0,6 C 87 % 13 lf 1009,9 hPa 0,8 l/m 0,00 h 0,67 h 5 W/m 18,5 km/h (3 Bft) 97,28 %
22.11.2015 17:00 1,3 C 0,1 C -0,5 C 91 % 15 lf 1010,4 hPa 0,0 l/m 0,00 h 0,00 h 5 W/m 9,3 km/h (2 Bft) 96,72 %
22.11.2015 18:00 1,2 C 0,6 C -0,0 C 94 % 15 lf 1010,9 hPa 0,0 l/m 0,00 h 0,00 h 9 W/m 15,1 km/h (3 Bft) 93,95 %
22.11.2015 19:00 1,3 C 0,6 C 0,0 C 95 % 15 lf 1011,7 hPa 0,0 l/m 0,00 h 0,00 h 9 W/m 15,8 km/h (3 Bft) 97,21 %
22.11.2015 20:00 1,0 C 0,2 C -0,6 C 95 % 15 lf 1012,5 hPa 0,0 l/m 0,00 h 0,00 h 9 W/m 11,6 km/h (2 Bft) 94,77 %
22.11.2015 21:00 0,6 C 0,4 C -0,3 C 95 % 15 lf 1013,2 hPa 0,0 l/m 0,00 h 0,00 h 9 W/m 12,4 km/h (3 Bft) 97,31 %
22.11.2015 22:00 1,0 C 0,9 C 0,1 C 96 % 15 lf 1013,6 hPa 0,0 l/m 0,00 h 0,00 h 9 W/m 17,1 km/h (3 Bft) 97,38 %
22.11.2015 23:00 1,3 C 1,2 C 0,6 C 96 % 15 lf 1014,3 hPa 0,0 l/m 0,00 h 0,00 h 9 W/m 18,0 km/h (3 Bft) 92,86 %
Min-Datum _ 22.11.15 22.11.15 22.11.15 18.11.15 16.11.15 21.11.15 - - - - 19.11.15 20.11.15
_ Min-Zeit 06:12 05:36 05:48 05:24 00:00 12:56 - - - - 18:00 00:02
Minimum _ -0,1 C -1,1 C -1,7 C 71 % 0 lf 994,9 hPa - - - - 0,0 km/h (0 Bft) 10,53 %
Max-Datum _ 17.11.15 17.11.15 17.11.15 17.11.15 16.11.15 18.11.15 17.11.15 16.11.15 16.11.15 22.11.15 17.11.15 16.11.15
_ Max-Zeit 13:20 12:04 12:36 07:46 15:18 10:44 06:02 09:46 14:57 11:48 23:04 01:18
Maximum _ 15,9 C 21,7 C 15,0 C 98 % 15 lf 1016,2 hPa 3,2 l/m 0,03 h 0,03 h 440 W/m 81,6 km/h
W (9 Bft)
100,00 %
Durchschnitt _ 9,3 C 9,5 C 7,9 C 88 % 6 lf 1007,5 hPa #20,8 l/m #14:18 h #25:50 h 69 W/m 24,6 km/h (4 Bft) 95,94 %
© 2015 W. Hausmann